sensor_id;sensor_type;location;lat;lon;timestamp;temperature;humidity
27384;DHT22;14851;51.166;4.760;2023-04-06T00:02:20;3.50;99.90
27384;DHT22;14851;51.166;4.760;2023-04-06T00:04:46;3.50;99.90
27384;DHT22;14851;51.166;4.760;2023-04-06T00:07:13;3.50;99.90
27384;DHT22;14851;51.166;4.760;2023-04-06T00:09:39;3.50;99.90
27384;DHT22;14851;51.166;4.760;2023-04-06T00:12:07;3.50;99.90
27384;DHT22;14851;51.166;4.760;2023-04-06T00:14:33;3.50;99.90
27384;DHT22;14851;51.166;4.760;2023-04-06T00:16:59;3.50;99.90
27384;DHT22;14851;51.166;4.760;2023-04-06T00:19:25;3.50;99.90
27384;DHT22;14851;51.166;4.760;2023-04-06T00:21:51;3.40;99.90
27384;DHT22;14851;51.166;4.760;2023-04-06T00:24:17;3.40;99.90
27384;DHT22;14851;51.166;4.760;2023-04-06T00:26:46;3.40;99.90
27384;DHT22;14851;51.166;4.760;2023-04-06T00:29:12;3.40;99.90
27384;DHT22;14851;51.166;4.760;2023-04-06T00:31:40;3.30;99.90
27384;DHT22;14851;51.166;4.760;2023-04-06T00:34:09;3.30;99.90
27384;DHT22;14851;51.166;4.760;2023-04-06T00:36:35;3.30;99.90
27384;DHT22;14851;51.166;4.760;2023-04-06T00:39:04;3.30;99.90
27384;DHT22;14851;51.166;4.760;2023-04-06T00:41:30;3.30;99.90
27384;DHT22;14851;51.166;4.760;2023-04-06T00:43:56;3.30;99.90
27384;DHT22;14851;51.166;4.760;2023-04-06T00:46:22;3.30;99.90
27384;DHT22;14851;51.166;4.760;2023-04-06T00:48:49;3.20;99.90
27384;DHT22;14851;51.166;4.760;2023-04-06T00:51:15;3.20;99.90
27384;DHT22;14851;51.166;4.760;2023-04-06T00:53:41;3.20;99.90
27384;DHT22;14851;51.166;4.760;2023-04-06T00:56:09;3.20;99.90
27384;DHT22;14851;51.166;4.760;2023-04-06T00:58:47;3.20;99.90
27384;DHT22;14851;51.166;4.760;2023-04-06T01:01:15;3.20;99.90
27384;DHT22;14851;51.166;4.760;2023-04-06T01:03:41;3.20;99.90
27384;DHT22;14851;51.166;4.760;2023-04-06T01:06:10;3.20;99.90
27384;DHT22;14851;51.166;4.760;2023-04-06T01:08:39;3.20;99.90
27384;DHT22;14851;51.166;4.760;2023-04-06T01:11:17;3.20;99.90
27384;DHT22;14851;51.166;4.760;2023-04-06T01:13:44;3.20;99.90
27384;DHT22;14851;51.166;4.760;2023-04-06T01:16:32;3.10;99.90
27384;DHT22;14851;51.166;4.760;2023-04-06T01:19:09;3.20;99.90
27384;DHT22;14851;51.166;4.760;2023-04-06T01:21:43;3.10;99.90
27384;DHT22;14851;51.166;4.760;2023-04-06T01:24:17;3.10;99.90
27384;DHT22;14851;51.166;4.760;2023-04-06T01:27:09;3.10;99.90
27384;DHT22;14851;51.166;4.760;2023-04-06T01:29:53;3.10;99.90
27384;DHT22;14851;51.166;4.760;2023-04-06T01:32:39;3.10;99.90
27384;DHT22;14851;51.166;4.760;2023-04-06T01:35:07;3.10;99.90
27384;DHT22;14851;51.166;4.760;2023-04-06T01:37:38;3.10;99.90
27384;DHT22;14851;51.166;4.760;2023-04-06T01:40:08;3.10;99.90
27384;DHT22;14851;51.166;4.760;2023-04-06T01:42:42;3.10;99.90
27384;DHT22;14851;51.166;4.760;2023-04-06T01:45:14;3.10;99.90
27384;DHT22;14851;51.166;4.760;2023-04-06T01:47:40;3.10;99.90
27384;DHT22;14851;51.166;4.760;2023-04-06T01:50:08;3.10;99.90
27384;DHT22;14851;51.166;4.760;2023-04-06T01:52:40;3.10;99.90
27384;DHT22;14851;51.166;4.760;2023-04-06T01:55:07;3.20;99.90
27384;DHT22;14851;51.166;4.760;2023-04-06T01:57:59;3.20;99.90
27384;DHT22;14851;51.166;4.760;2023-04-06T02:00:32;3.20;99.90
27384;DHT22;14851;51.166;4.760;2023-04-06T02:02:59;3.20;99.90
27384;DHT22;14851;51.166;4.760;2023-04-06T02:05:30;3.20;99.90
27384;DHT22;14851;51.166;4.760;2023-04-06T02:07:56;3.20;99.90
27384;DHT22;14851;51.166;4.760;2023-04-06T02:10:30;3.20;99.90
27384;DHT22;14851;51.166;4.760;2023-04-06T02:13:00;3.20;99.90
27384;DHT22;14851;51.166;4.760;2023-04-06T02:15:28;3.20;99.90
27384;DHT22;14851;51.166;4.760;2023-04-06T02:17:55;3.20;99.90
27384;DHT22;14851;51.166;4.760;2023-04-06T02:20:21;3.30;99.90
27384;DHT22;14851;51.166;4.760;2023-04-06T02:22:47;3.30;99.90
27384;DHT22;14851;51.166;4.760;2023-04-06T02:25:13;3.30;99.90
27384;DHT22;14851;51.166;4.760;2023-04-06T02:27:38;3.20;99.90
27384;DHT22;14851;51.166;4.760;2023-04-06T02:30:05;3.20;99.90
27384;DHT22;14851;51.166;4.760;2023-04-06T02:32:33;3.30;99.90
27384;DHT22;14851;51.166;4.760;2023-04-06T02:35:00;3.30;99.90
27384;DHT22;14851;51.166;4.760;2023-04-06T02:37:28;3.30;99.90
27384;DHT22;14851;51.166;4.760;2023-04-06T02:39:54;3.30;99.90
27384;DHT22;14851;51.166;4.760;2023-04-06T02:42:22;3.30;99.90
27384;DHT22;14851;51.166;4.760;2023-04-06T02:44:51;3.30;99.90
27384;DHT22;14851;51.166;4.760;2023-04-06T02:47:19;3.30;99.90
27384;DHT22;14851;51.166;4.760;2023-04-06T02:49:48;3.30;99.90
27384;DHT22;14851;51.166;4.760;2023-04-06T02:52:15;3.30;99.90
27384;DHT22;14851;51.166;4.760;2023-04-06T02:54:46;3.30;99.90
27384;DHT22;14851;51.166;4.760;2023-04-06T02:57:12;3.30;99.90
27384;DHT22;14851;51.166;4.760;2023-04-06T02:59:42;3.30;99.90
27384;DHT22;14851;51.166;4.760;2023-04-06T03:02:14;3.30;99.90
27384;DHT22;14851;51.166;4.760;2023-04-06T03:04:46;3.30;99.90
27384;DHT22;14851;51.166;4.760;2023-04-06T03:07:24;3.30;99.90
27384;DHT22;14851;51.166;4.760;2023-04-06T03:09:50;3.30;99.90
27384;DHT22;14851;51.166;4.760;2023-04-06T03:12:17;3.30;99.90
27384;DHT22;14851;51.166;4.760;2023-04-06T03:15:05;3.30;99.90
27384;DHT22;14851;51.166;4.760;2023-04-06T03:17:31;3.20;99.90
27384;DHT22;14851;51.166;4.760;2023-04-06T03:20:01;3.20;99.90
27384;DHT22;14851;51.166;4.760;2023-04-06T03:22:31;3.30;99.90
27384;DHT22;14851;51.166;4.760;2023-04-06T03:24:57;3.30;99.90
27384;DHT22;14851;51.166;4.760;2023-04-06T03:27:23;3.30;99.90
27384;DHT22;14851;51.166;4.760;2023-04-06T03:29:50;3.30;99.90
27384;DHT22;14851;51.166;4.760;2023-04-06T03:32:23;3.30;99.90
27384;DHT22;14851;51.166;4.760;2023-04-06T03:34:49;3.30;99.90
27384;DHT22;14851;51.166;4.760;2023-04-06T03:37:15;3.30;99.90
27384;DHT22;14851;51.166;4.760;2023-04-06T03:39:46;3.30;99.90
27384;DHT22;14851;51.166;4.760;2023-04-06T03:42:22;3.30;99.90
27384;DHT22;14851;51.166;4.760;2023-04-06T03:44:52;3.30;99.90
27384;DHT22;14851;51.166;4.760;2023-04-06T03:47:19;3.30;99.90
27384;DHT22;14851;51.166;4.760;2023-04-06T03:49:52;3.30;99.90
27384;DHT22;14851;51.166;4.760;2023-04-06T03:52:18;3.30;99.90
27384;DHT22;14851;51.166;4.760;2023-04-06T03:54:44;3.30;99.90
27384;DHT22;14851;51.166;4.760;2023-04-06T03:57:12;3.30;99.90
27384;DHT22;14851;51.166;4.760;2023-04-06T03:59:38;3.30;99.90
27384;DHT22;14851;51.166;4.760;2023-04-06T04:02:04;3.30;99.90
27384;DHT22;14851;51.166;4.760;2023-04-06T04:04:30;3.30;99.90
27384;DHT22;14851;51.166;4.760;2023-04-06T04:06:57;3.30;99.90
27384;DHT22;14851;51.166;4.760;2023-04-06T04:09:23;3.40;99.90
27384;DHT22;14851;51.166;4.760;2023-04-06T04:11:50;3.40;99.90
27384;DHT22;14851;51.166;4.760;2023-04-06T04:14:18;3.40;99.90
27384;DHT22;14851;51.166;4.760;2023-04-06T04:16:44;3.40;99.90
27384;DHT22;14851;51.166;4.760;2023-04-06T04:19:11;3.40;99.90
27384;DHT22;14851;51.166;4.760;2023-04-06T04:21:43;3.50;99.90
27384;DHT22;14851;51.166;4.760;2023-04-06T04:24:17;3.50;99.90
27384;DHT22;14851;51.166;4.760;2023-04-06T04:26:43;3.50;99.90
27384;DHT22;14851;51.166;4.760;2023-04-06T04:29:10;3.50;99.90
27384;DHT22;14851;51.166;4.760;2023-04-06T04:31:37;3.50;99.90
27384;DHT22;14851;51.166;4.760;2023-04-06T04:34:15;3.50;99.90
27384;DHT22;14851;51.166;4.760;2023-04-06T04:36:41;3.50;99.90
27384;DHT22;14851;51.166;4.760;2023-04-06T04:39:16;3.50;99.90
27384;DHT22;14851;51.166;4.760;2023-04-06T04:41:46;3.60;99.90
27384;DHT22;14851;51.166;4.760;2023-04-06T04:44:17;3.60;99.90
27384;DHT22;14851;51.166;4.760;2023-04-06T04:46:44;3.60;99.90
27384;DHT22;14851;51.166;4.760;2023-04-06T04:49:11;3.60;99.90
27384;DHT22;14851;51.166;4.760;2023-04-06T04:51:38;3.60;99.90
27384;DHT22;14851;51.166;4.760;2023-04-06T04:54:11;3.60;99.90
27384;DHT22;14851;51.166;4.760;2023-04-06T04:56:38;3.70;99.90
27384;DHT22;14851;51.166;4.760;2023-04-06T04:59:15;3.70;99.90
27384;DHT22;14851;51.166;4.760;2023-04-06T05:01:49;3.70;99.90
27384;DHT22;14851;51.166;4.760;2023-04-06T05:04:15;3.70;99.90
27384;DHT22;14851;51.166;4.760;2023-04-06T05:06:41;3.70;99.90
27384;DHT22;14851;51.166;4.760;2023-04-06T05:09:07;3.70;99.90
27384;DHT22;14851;51.166;4.760;2023-04-06T05:11:34;3.70;99.90
27384;DHT22;14851;51.166;4.760;2023-04-06T05:14:02;3.70;99.90
27384;DHT22;14851;51.166;4.760;2023-04-06T05:16:29;3.80;99.90
27384;DHT22;14851;51.166;4.760;2023-04-06T05:18:55;3.70;99.90
27384;DHT22;14851;51.166;4.760;2023-04-06T05:21:26;3.80;99.90
27384;DHT22;14851;51.166;4.760;2023-04-06T05:24:04;3.70;99.90
27384;DHT22;14851;51.166;4.760;2023-04-06T05:26:33;3.80;99.90
27384;DHT22;14851;51.166;4.760;2023-04-06T05:29:06;3.80;99.90
27384;DHT22;14851;51.166;4.760;2023-04-06T05:31:34;3.80;99.90
27384;DHT22;14851;51.166;4.760;2023-04-06T05:34:00;3.80;99.90
27384;DHT22;14851;51.166;4.760;2023-04-06T05:36:31;3.80;99.90
27384;DHT22;14851;51.166;4.760;2023-04-06T05:39:00;3.90;99.90
27384;DHT22;14851;51.166;4.760;2023-04-06T05:41:34;3.80;99.90
27384;DHT22;14851;51.166;4.760;2023-04-06T05:44:00;3.90;99.90
27384;DHT22;14851;51.166;4.760;2023-04-06T05:46:27;3.90;99.90
27384;DHT22;14851;51.166;4.760;2023-04-06T05:48:56;3.90;99.90
27384;DHT22;14851;51.166;4.760;2023-04-06T05:51:25;3.90;99.90
27384;DHT22;14851;51.166;4.760;2023-04-06T05:53:52;3.90;99.90
27384;DHT22;14851;51.166;4.760;2023-04-06T05:56:18;3.90;99.90
27384;DHT22;14851;51.166;4.760;2023-04-06T05:58:45;3.90;99.90
27384;DHT22;14851;51.166;4.760;2023-04-06T06:01:19;4.00;99.90
27384;DHT22;14851;51.166;4.760;2023-04-06T06:03:46;4.00;99.90
27384;DHT22;14851;51.166;4.760;2023-04-06T06:06:16;4.00;99.90
27384;DHT22;14851;51.166;4.760;2023-04-06T06:09:05;4.10;99.90
27384;DHT22;14851;51.166;4.760;2023-04-06T06:11:36;4.10;99.90
27384;DHT22;14851;51.166;4.760;2023-04-06T06:14:03;4.10;99.90
27384;DHT22;14851;51.166;4.760;2023-04-06T06:16:33;4.20;99.90
27384;DHT22;14851;51.166;4.760;2023-04-06T06:18:59;4.20;99.90
27384;DHT22;14851;51.166;4.760;2023-04-06T06:21:31;4.30;99.90
27384;DHT22;14851;51.166;4.760;2023-04-06T06:23:57;4.30;99.90
27384;DHT22;14851;51.166;4.760;2023-04-06T06:26:25;4.40;99.90
27384;DHT22;14851;51.166;4.760;2023-04-06T06:28:51;4.40;99.90
27384;DHT22;14851;51.166;4.760;2023-04-06T06:31:17;4.50;99.90
27384;DHT22;14851;51.166;4.760;2023-04-06T06:33:46;4.50;99.90
27384;DHT22;14851;51.166;4.760;2023-04-06T06:36:16;4.60;99.90
27384;DHT22;14851;51.166;4.760;2023-04-06T06:38:43;4.60;99.90
27384;DHT22;14851;51.166;4.760;2023-04-06T06:41:15;4.70;99.90
27384;DHT22;14851;51.166;4.760;2023-04-06T06:43:41;4.80;99.90
27384;DHT22;14851;51.166;4.760;2023-04-06T06:46:13;4.80;99.90
27384;DHT22;14851;51.166;4.760;2023-04-06T06:48:41;4.90;99.90
27384;DHT22;14851;51.166;4.760;2023-04-06T06:51:07;4.90;99.90
27384;DHT22;14851;51.166;4.760;2023-04-06T06:53:35;4.90;99.90
27384;DHT22;14851;51.166;4.760;2023-04-06T06:56:01;5.00;99.90
27384;DHT22;14851;51.166;4.760;2023-04-06T06:58:28;5.00;99.90
27384;DHT22;14851;51.166;4.760;2023-04-06T07:00:57;5.10;99.90
27384;DHT22;14851;51.166;4.760;2023-04-06T07:03:25;5.10;99.90
27384;DHT22;14851;51.166;4.760;2023-04-06T07:05:52;5.10;99.90
27384;DHT22;14851;51.166;4.760;2023-04-06T07:08:22;5.20;99.90
27384;DHT22;14851;51.166;4.760;2023-04-06T07:10:51;5.20;99.90
27384;DHT22;14851;51.166;4.760;2023-04-06T07:13:23;5.20;99.90
27384;DHT22;14851;51.166;4.760;2023-04-06T07:15:52;5.30;99.90
27384;DHT22;14851;51.166;4.760;2023-04-06T07:18:19;5.40;99.90
27384;DHT22;14851;51.166;4.760;2023-04-06T07:20:46;5.40;99.90
27384;DHT22;14851;51.166;4.760;2023-04-06T07:23:12;5.40;99.90
27384;DHT22;14851;51.166;4.760;2023-04-06T07:25:38;5.50;99.90
27384;DHT22;14851;51.166;4.760;2023-04-06T07:28:04;5.50;99.90
27384;DHT22;14851;51.166;4.760;2023-04-06T07:30:32;5.50;99.90
27384;DHT22;14851;51.166;4.760;2023-04-06T07:33:01;5.60;99.90
27384;DHT22;14851;51.166;4.760;2023-04-06T07:35:31;5.60;99.90
27384;DHT22;14851;51.166;4.760;2023-04-06T07:37:58;5.80;99.90
27384;DHT22;14851;51.166;4.760;2023-04-06T07:40:24;5.80;99.90
27384;DHT22;14851;51.166;4.760;2023-04-06T07:42:52;5.90;99.90
27384;DHT22;14851;51.166;4.760;2023-04-06T07:45:18;6.00;99.90
27384;DHT22;14851;51.166;4.760;2023-04-06T07:47:46;6.10;99.90
27384;DHT22;14851;51.166;4.760;2023-04-06T07:50:12;6.10;99.90
27384;DHT22;14851;51.166;4.760;2023-04-06T07:52:38;6.20;99.90
27384;DHT22;14851;51.166;4.760;2023-04-06T07:55:05;6.40;99.90
27384;DHT22;14851;51.166;4.760;2023-04-06T07:57:33;6.30;99.90
27384;DHT22;14851;51.166;4.760;2023-04-06T07:59:59;6.30;99.90
27384;DHT22;14851;51.166;4.760;2023-04-06T08:02:28;6.30;99.90
27384;DHT22;14851;51.166;4.760;2023-04-06T08:04:54;6.20;99.90
27384;DHT22;14851;51.166;4.760;2023-04-06T08:07:20;6.20;99.90
27384;DHT22;14851;51.166;4.760;2023-04-06T08:09:47;6.20;99.90
27384;DHT22;14851;51.166;4.760;2023-04-06T08:12:15;6.20;99.90
27384;DHT22;14851;51.166;4.760;2023-04-06T08:14:41;6.20;99.90
27384;DHT22;14851;51.166;4.760;2023-04-06T08:17:06;6.20;99.90
27384;DHT22;14851;51.166;4.760;2023-04-06T08:19:32;6.30;99.90
27384;DHT22;14851;51.166;4.760;2023-04-06T08:21:58;6.30;99.90
27384;DHT22;14851;51.166;4.760;2023-04-06T08:24:26;6.30;99.90
27384;DHT22;14851;51.166;4.760;2023-04-06T08:26:53;6.30;99.90
27384;DHT22;14851;51.166;4.760;2023-04-06T08:29:18;6.30;99.90
27384;DHT22;14851;51.166;4.760;2023-04-06T08:31:45;6.30;99.90
27384;DHT22;14851;51.166;4.760;2023-04-06T08:34:11;6.40;99.90
27384;DHT22;14851;51.166;4.760;2023-04-06T08:36:44;6.40;99.90
27384;DHT22;14851;51.166;4.760;2023-04-06T08:39:11;6.40;99.90
27384;DHT22;14851;51.166;4.760;2023-04-06T08:41:37;6.40;99.90
27384;DHT22;14851;51.166;4.760;2023-04-06T08:44:03;6.50;99.90
27384;DHT22;14851;51.166;4.760;2023-04-06T08:46:32;6.50;99.90
27384;DHT22;14851;51.166;4.760;2023-04-06T08:49:02;6.50;99.90
27384;DHT22;14851;51.166;4.760;2023-04-06T08:51:29;6.60;99.90
27384;DHT22;14851;51.166;4.760;2023-04-06T08:53:59;6.60;99.90
27384;DHT22;14851;51.166;4.760;2023-04-06T08:56:28;6.70;99.90
27384;DHT22;14851;51.166;4.760;2023-04-06T08:58:55;6.70;99.90
27384;DHT22;14851;51.166;4.760;2023-04-06T09:01:29;6.70;99.90
27384;DHT22;14851;51.166;4.760;2023-04-06T09:03:59;6.80;99.90
27384;DHT22;14851;51.166;4.760;2023-04-06T09:06:26;6.80;99.90
27384;DHT22;14851;51.166;4.760;2023-04-06T09:08:52;6.80;99.90
27384;DHT22;14851;51.166;4.760;2023-04-06T09:11:19;6.90;99.90
27384;DHT22;14851;51.166;4.760;2023-04-06T09:13:54;7.00;99.90
27384;DHT22;14851;51.166;4.760;2023-04-06T09:16:25;6.90;99.90
27384;DHT22;14851;51.166;4.760;2023-04-06T09:18:51;7.00;99.90
27384;DHT22;14851;51.166;4.760;2023-04-06T09:21:18;7.00;99.90
27384;DHT22;14851;51.166;4.760;2023-04-06T09:23:44;7.00;99.90
27384;DHT22;14851;51.166;4.760;2023-04-06T09:26:11;7.00;99.90
27384;DHT22;14851;51.166;4.760;2023-04-06T09:28:53;7.10;99.90
27384;DHT22;14851;51.166;4.760;2023-04-06T09:31:29;7.10;99.90
27384;DHT22;14851;51.166;4.760;2023-04-06T09:33:56;7.20;99.90
27384;DHT22;14851;51.166;4.760;2023-04-06T09:36:34;7.20;99.90
27384;DHT22;14851;51.166;4.760;2023-04-06T09:39:04;7.20;99.90
27384;DHT22;14851;51.166;4.760;2023-04-06T09:41:35;7.20;99.90
27384;DHT22;14851;51.166;4.760;2023-04-06T09:44:08;7.30;99.90
27384;DHT22;14851;51.166;4.760;2023-04-06T09:46:35;7.30;99.90
27384;DHT22;14851;51.166;4.760;2023-04-06T09:49:02;7.30;99.90
27384;DHT22;14851;51.166;4.760;2023-04-06T09:51:53;7.30;99.90
27384;DHT22;14851;51.166;4.760;2023-04-06T09:54:22;7.40;99.90
27384;DHT22;14851;51.166;4.760;2023-04-06T09:57:09;7.40;99.90
27384;DHT22;14851;51.166;4.760;2023-04-06T10:00:02;7.40;99.90
27384;DHT22;14851;51.166;4.760;2023-04-06T10:08:10;7.50;99.90
27384;DHT22;14851;51.166;4.760;2023-04-06T10:10:40;7.50;99.90
27384;DHT22;14851;51.166;4.760;2023-04-06T10:13:07;7.50;99.90
27384;DHT22;14851;51.166;4.760;2023-04-06T10:15:38;7.60;99.90
27384;DHT22;14851;51.166;4.760;2023-04-06T10:18:04;7.60;99.90
27384;DHT22;14851;51.166;4.760;2023-04-06T10:20:47;7.60;99.90
27384;DHT22;14851;51.166;4.760;2023-04-06T10:25:53;7.70;99.90
27384;DHT22;14851;51.166;4.760;2023-04-06T10:28:22;7.70;99.90
27384;DHT22;14851;51.166;4.760;2023-04-06T10:30:49;7.80;99.90
27384;DHT22;14851;51.166;4.760;2023-04-06T10:33:19;7.80;99.90
27384;DHT22;14851;51.166;4.760;2023-04-06T10:35:46;7.80;99.90
27384;DHT22;14851;51.166;4.760;2023-04-06T10:38:12;7.90;99.90
27384;DHT22;14851;51.166;4.760;2023-04-06T10:40:46;7.90;99.90
27384;DHT22;14851;51.166;4.760;2023-04-06T10:43:19;7.90;99.90
27384;DHT22;14851;51.166;4.760;2023-04-06T10:45:56;7.90;99.90
27384;DHT22;14851;51.166;4.760;2023-04-06T10:48:22;7.90;99.90
27384;DHT22;14851;51.166;4.760;2023-04-06T10:50:51;8.00;99.90
27384;DHT22;14851;51.166;4.760;2023-04-06T10:53:23;8.00;99.90
27384;DHT22;14851;51.166;4.760;2023-04-06T10:55:50;8.00;99.90
27384;DHT22;14851;51.166;4.760;2023-04-06T10:58:17;8.00;99.90
27384;DHT22;14851;51.166;4.760;2023-04-06T11:00:47;8.00;99.90
27384;DHT22;14851;51.166;4.760;2023-04-06T11:03:13;8.00;99.90
27384;DHT22;14851;51.166;4.760;2023-04-06T11:05:46;8.00;99.90
27384;DHT22;14851;51.166;4.760;2023-04-06T11:10:49;8.00;99.90
27384;DHT22;14851;51.166;4.760;2023-04-06T11:13:15;8.10;99.90
27384;DHT22;14851;51.166;4.760;2023-04-06T11:15:43;8.10;99.90
27384;DHT22;14851;51.166;4.760;2023-04-06T11:18:10;8.20;99.90
27384;DHT22;14851;51.166;4.760;2023-04-06T11:20:36;8.20;99.90
27384;DHT22;14851;51.166;4.760;2023-04-06T11:23:02;8.10;99.90
27384;DHT22;14851;51.166;4.760;2023-04-06T11:25:30;8.10;99.90
27384;DHT22;14851;51.166;4.760;2023-04-06T11:27:58;8.00;99.90
27384;DHT22;14851;51.166;4.760;2023-04-06T11:30:24;8.10;99.90
27384;DHT22;14851;51.166;4.760;2023-04-06T11:32:50;8.10;99.90
27384;DHT22;14851;51.166;4.760;2023-04-06T11:35:21;8.10;99.90
27384;DHT22;14851;51.166;4.760;2023-04-06T11:37:49;8.10;99.90
27384;DHT22;14851;51.166;4.760;2023-04-06T11:40:15;8.20;99.90
27384;DHT22;14851;51.166;4.760;2023-04-06T11:42:52;8.20;99.90
27384;DHT22;14851;51.166;4.760;2023-04-06T11:45:21;8.20;99.90
27384;DHT22;14851;51.166;4.760;2023-04-06T11:47:59;8.20;99.90
27384;DHT22;14851;51.166;4.760;2023-04-06T11:50:31;8.30;99.90
27384;DHT22;14851;51.166;4.760;2023-04-06T11:52:59;8.20;99.90
27384;DHT22;14851;51.166;4.760;2023-04-06T11:55:26;8.30;99.90
27384;DHT22;14851;51.166;4.760;2023-04-06T11:57:53;8.30;99.90
27384;DHT22;14851;51.166;4.760;2023-04-06T12:00:20;8.40;99.90
27384;DHT22;14851;51.166;4.760;2023-04-06T12:02:47;8.40;99.90
27384;DHT22;14851;51.166;4.760;2023-04-06T12:05:16;8.40;99.90
27384;DHT22;14851;51.166;4.760;2023-04-06T12:07:45;8.40;99.90
27384;DHT22;14851;51.166;4.760;2023-04-06T12:10:12;8.40;99.90
27384;DHT22;14851;51.166;4.760;2023-04-06T12:12:39;8.40;99.90
27384;DHT22;14851;51.166;4.760;2023-04-06T12:15:06;8.40;99.90
27384;DHT22;14851;51.166;4.760;2023-04-06T12:17:32;8.40;99.90
27384;DHT22;14851;51.166;4.760;2023-04-06T12:19:58;8.40;99.90
27384;DHT22;14851;51.166;4.760;2023-04-06T12:22:24;8.30;99.90
27384;DHT22;14851;51.166;4.760;2023-04-06T12:24:50;8.30;99.90
27384;DHT22;14851;51.166;4.760;2023-04-06T12:27:16;8.40;99.90
27384;DHT22;14851;51.166;4.760;2023-04-06T12:29:44;8.40;99.90
27384;DHT22;14851;51.166;4.760;2023-04-06T12:32:10;8.40;99.90
27384;DHT22;14851;51.166;4.760;2023-04-06T12:34:35;8.40;99.90
27384;DHT22;14851;51.166;4.760;2023-04-06T12:37:04;8.40;99.90
27384;DHT22;14851;51.166;4.760;2023-04-06T12:39:31;8.40;99.90
27384;DHT22;14851;51.166;4.760;2023-04-06T12:42:00;8.50;99.90
27384;DHT22;14851;51.166;4.760;2023-04-06T12:44:28;8.50;99.90
27384;DHT22;14851;51.166;4.760;2023-04-06T12:46:54;8.50;99.90
27384;DHT22;14851;51.166;4.760;2023-04-06T12:49:20;8.50;99.90
27384;DHT22;14851;51.166;4.760;2023-04-06T12:51:47;8.50;99.90
27384;DHT22;14851;51.166;4.760;2023-04-06T12:54:16;8.50;99.90
27384;DHT22;14851;51.166;4.760;2023-04-06T12:56:42;8.50;99.90
27384;DHT22;14851;51.166;4.760;2023-04-06T12:59:08;8.50;99.90
27384;DHT22;14851;51.166;4.760;2023-04-06T13:01:33;8.50;99.90
27384;DHT22;14851;51.166;4.760;2023-04-06T13:03:59;8.60;99.90
27384;DHT22;14851;51.166;4.760;2023-04-06T13:06:28;8.60;99.90
27384;DHT22;14851;51.166;4.760;2023-04-06T13:08:56;8.60;99.90
27384;DHT22;14851;51.166;4.760;2023-04-06T13:11:22;8.60;99.90
27384;DHT22;14851;51.166;4.760;2023-04-06T13:13:52;8.70;99.90
27384;DHT22;14851;51.166;4.760;2023-04-06T13:16:20;8.70;99.90
27384;DHT22;14851;51.166;4.760;2023-04-06T13:18:46;8.70;99.90
27384;DHT22;14851;51.166;4.760;2023-04-06T13:21:14;8.70;99.90
27384;DHT22;14851;51.166;4.760;2023-04-06T13:23:41;8.80;99.90
27384;DHT22;14851;51.166;4.760;2023-04-06T13:26:07;8.80;99.90
27384;DHT22;14851;51.166;4.760;2023-04-06T13:28:36;8.80;99.90
27384;DHT22;14851;51.166;4.760;2023-04-06T13:31:05;8.80;99.90
27384;DHT22;14851;51.166;4.760;2023-04-06T13:33:32;8.80;99.90
27384;DHT22;14851;51.166;4.760;2023-04-06T13:36:00;8.80;99.90
27384;DHT22;14851;51.166;4.760;2023-04-06T13:38:29;8.80;99.90
27384;DHT22;14851;51.166;4.760;2023-04-06T13:40:56;8.80;99.90
27384;DHT22;14851;51.166;4.760;2023-04-06T13:43:21;8.80;99.90
27384;DHT22;14851;51.166;4.760;2023-04-06T13:45:54;8.80;99.90
27384;DHT22;14851;51.166;4.760;2023-04-06T13:48:21;8.80;99.90
27384;DHT22;14851;51.166;4.760;2023-04-06T13:50:48;8.80;99.90
27384;DHT22;14851;51.166;4.760;2023-04-06T13:53:15;8.80;99.90
27384;DHT22;14851;51.166;4.760;2023-04-06T13:55:41;8.80;99.90
27384;DHT22;14851;51.166;4.760;2023-04-06T13:58:07;8.80;99.90
27384;DHT22;14851;51.166;4.760;2023-04-06T14:00:33;8.80;99.90
27384;DHT22;14851;51.166;4.760;2023-04-06T14:03:03;8.80;99.90
27384;DHT22;14851;51.166;4.760;2023-04-06T14:05:33;8.80;99.90
27384;DHT22;14851;51.166;4.760;2023-04-06T14:07:59;8.80;99.90
27384;DHT22;14851;51.166;4.760;2023-04-06T14:10:25;8.80;99.90
27384;DHT22;14851;51.166;4.760;2023-04-06T14:12:56;8.80;99.90
27384;DHT22;14851;51.166;4.760;2023-04-06T14:15:23;8.80;99.90
27384;DHT22;14851;51.166;4.760;2023-04-06T14:17:49;8.80;99.90
27384;DHT22;14851;51.166;4.760;2023-04-06T14:20:19;8.80;99.90
27384;DHT22;14851;51.166;4.760;2023-04-06T14:22:45;8.80;99.90
27384;DHT22;14851;51.166;4.760;2023-04-06T14:25:11;8.80;99.90
27384;DHT22;14851;51.166;4.760;2023-04-06T14:27:38;8.80;99.90
27384;DHT22;14851;51.166;4.760;2023-04-06T14:30:04;8.80;99.90
27384;DHT22;14851;51.166;4.760;2023-04-06T14:32:32;8.80;99.90
27384;DHT22;14851;51.166;4.760;2023-04-06T14:35:00;8.80;99.90
27384;DHT22;14851;51.166;4.760;2023-04-06T14:37:26;8.80;99.90
27384;DHT22;14851;51.166;4.760;2023-04-06T14:39:52;8.80;99.90
27384;DHT22;14851;51.166;4.760;2023-04-06T14:42:18;8.90;99.90
27384;DHT22;14851;51.166;4.760;2023-04-06T14:44:44;8.80;99.90
27384;DHT22;14851;51.166;4.760;2023-04-06T14:47:11;8.80;99.90
27384;DHT22;14851;51.166;4.760;2023-04-06T14:49:40;8.80;99.90
27384;DHT22;14851;51.166;4.760;2023-04-06T14:52:05;8.80;99.90
27384;DHT22;14851;51.166;4.760;2023-04-06T14:54:31;8.80;99.90
27384;DHT22;14851;51.166;4.760;2023-04-06T14:56:57;8.80;99.90
27384;DHT22;14851;51.166;4.760;2023-04-06T14:59:23;8.80;99.90
27384;DHT22;14851;51.166;4.760;2023-04-06T15:01:51;8.90;99.90
27384;DHT22;14851;51.166;4.760;2023-04-06T15:04:17;8.90;99.90
27384;DHT22;14851;51.166;4.760;2023-04-06T15:06:43;8.90;99.90
27384;DHT22;14851;51.166;4.760;2023-04-06T15:09:09;8.90;99.90
27384;DHT22;14851;51.166;4.760;2023-04-06T15:11:35;8.90;99.90
27384;DHT22;14851;51.166;4.760;2023-04-06T15:14:00;8.90;99.90
27384;DHT22;14851;51.166;4.760;2023-04-06T15:16:27;8.90;99.90
27384;DHT22;14851;51.166;4.760;2023-04-06T15:18:58;8.90;99.90
27384;DHT22;14851;51.166;4.760;2023-04-06T15:21:24;8.90;99.90
27384;DHT22;14851;51.166;4.760;2023-04-06T15:23:52;8.90;99.90
27384;DHT22;14851;51.166;4.760;2023-04-06T15:26:19;8.90;99.90
27384;DHT22;14851;51.166;4.760;2023-04-06T15:28:45;8.90;99.90
27384;DHT22;14851;51.166;4.760;2023-04-06T15:31:19;9.00;99.90
27384;DHT22;14851;51.166;4.760;2023-04-06T15:33:48;9.00;99.90
27384;DHT22;14851;51.166;4.760;2023-04-06T15:36:27;8.90;99.90
27384;DHT22;14851;51.166;4.760;2023-04-06T15:38:58;8.90;99.90
27384;DHT22;14851;51.166;4.760;2023-04-06T15:41:24;9.00;99.90
27384;DHT22;14851;51.166;4.760;2023-04-06T15:43:52;9.00;99.90
27384;DHT22;14851;51.166;4.760;2023-04-06T15:46:18;9.00;99.90
27384;DHT22;14851;51.166;4.760;2023-04-06T15:48:44;8.90;99.90
27384;DHT22;14851;51.166;4.760;2023-04-06T15:51:10;9.00;99.90
27384;DHT22;14851;51.166;4.760;2023-04-06T15:53:37;9.00;99.90
27384;DHT22;14851;51.166;4.760;2023-04-06T15:56:04;9.00;99.90
27384;DHT22;14851;51.166;4.760;2023-04-06T15:58:34;9.00;99.90
27384;DHT22;14851;51.166;4.760;2023-04-06T16:01:00;9.10;99.90
27384;DHT22;14851;51.166;4.760;2023-04-06T16:03:27;9.10;99.90
27384;DHT22;14851;51.166;4.760;2023-04-06T16:05:53;9.10;99.90